Time;durP1;ratioP1;P1;durP2;ratioP2;P2;SDS_P1;SDS_P2;PMS_P1;PMS_P2;Temp;Humidity;BMP_temperature;BMP_pressure;BME280_temperature;BME280_humidity;BME280_pressure;Samples;Min_cycle;Max_cycle;Signal;HPM_P1;HPM_P2
2023/04/05 00:00:44;;;;;;;;;;;;;;;;;;5036920;28;19956;-68
2023/04/05 00:03:10;;;;;;;;;;;;;;;;;;5036590;28;19956;-67
2023/04/05 00:05:36;;;;;;;;;;;;;;;;;;5036580;28;19986;-68
2023/04/05 00:08:02;;;;;;;;;;;;;;;;;;5036522;28;19956;-67
2023/04/05 00:10:28;;;;;;;;;;;;;;;;;;5036731;28;19962;-67
2023/04/05 00:12:54;;;;;;;;;;;;;;;;;;5036302;28;19976;-66
2023/04/05 00:15:20;;;;;;;;;;;;;;;;;;5036370;28;20455;-66
2023/04/05 00:17:46;;;;;;;;;;;;;;;;;;5036871;28;19960;-67
2023/04/05 00:20:12;;;;;;;;;;;;;;;;;;5036197;28;19960;-67
2023/04/05 00:22:38;;;;;;;;;;;;;;;;;;5036013;28;20004;-67
2023/04/05 00:25:04;;;;;;;;;;;;;;;;;;5036194;28;19964;-67
2023/04/05 00:27:30;;;;;;;;;;;;;;;;;;5036420;28;19992;-66
2023/04/05 00:29:55;;;;;;;;;;;;;;;;;;5036317;28;19980;-66
2023/04/05 00:32:21;;;;;;;;;;;;;;;;;;5035317;28;19979;-67
2023/04/05 00:34:47;;;;;;;;;;;;;;;;;;5035956;28;20380;-67
2023/04/05 00:37:13;;;;;;;;;;;;;;;;;;5036228;28;19962;-67
2023/04/05 00:39:39;;;;;;;;;;;;;;;;;;5035883;28;20331;-68
2023/04/05 00:42:05;;;;;;;;;;;;;;;;;;5035881;28;19960;-66
2023/04/05 00:44:34;;;;;;;;;;;;;;;;;;5035819;28;20005;-66
2023/04/05 00:47:00;;;;;;;;;;;;;;;;;;5035710;28;20433;-66
2023/04/05 00:49:26;;;;;;;;;;;;;;;;;;5036261;28;19966;-66
2023/04/05 00:51:52;;;;;;;;;;;;;;;;;;5035608;28;19976;-67
2023/04/05 00:54:18;;;;;;;;;;;;;;;;;;5035618;28;19955;-68
2023/04/05 00:56:44;;;;;;;;;;;;;;;;;;5035852;28;20073;-67
2023/04/05 00:59:10;;;;;;;;;;;;;;;;;;5035574;28;20377;-67
2023/04/05 01:01:36;;;;;;;;;;;;;;;;;;5035730;28;19964;-66
2023/04/05 01:04:02;;;;;;;;;;;;;;;;;;5035736;28;19981;-67
2023/04/05 01:06:28;;;;;;;;;;;;;;;;;;5035381;28;20051;-67
2023/04/05 01:08:55;;;;;;;;;;;;;;;;;;5035640;28;20416;-66
2023/04/05 01:11:21;;;;;;;;;;;;;;;;;;5035470;28;20470;-67
2023/04/05 01:13:46;;;;;;;;;;;;;;;;;;5035327;28;19998;-66
2023/04/05 01:16:12;;;;;;;;;;;;;;;;;;5035263;28;20327;-67
2023/04/05 01:18:39;;;;;;;;;;;;;;;;;;5035215;28;19956;-67
2023/04/05 01:21:06;;;;;;;;;;;;;;;;;;5035632;28;19997;-67
2023/04/05 01:23:32;;;;;;;;;;;;;;;;;;5035390;28;19982;-67
2023/04/05 01:25:58;;;;;;;;;;;;;;;;;;5035619;28;19975;-67
2023/04/05 01:28:24;;;;;;;;;;;;;;;;;;5034979;28;20432;-66
2023/04/05 01:30:50;;;;;;;;;;;;;;;;;;5034882;28;19971;-66
2023/04/05 01:33:16;;;;;;;;;;;;;;;;;;5034819;28;20437;-67
2023/04/05 01:35:43;;;;;;;;;;;;;;;;;;5034861;28;19962;-67
2023/04/05 01:38:09;;;;;;;;;;;;;;;;;;5035085;28;19956;-66
2023/04/05 01:40:37;;;;;;;;;;;;;;;;;;5034774;28;19956;-67
2023/04/05 01:43:02;;;;;;;;;;;;;;;;;;5034760;28;19955;-67
2023/04/05 01:45:30;;;;;;;;;;;;;;;;;;5033987;28;19967;-67
2023/04/05 01:47:56;;;;;;;;;;;;;;;;;;5035257;28;19995;-66
2023/04/05 01:50:22;;;;;;;;;;;;;;;;;;5034853;28;20026;-67
2023/04/05 01:52:48;;;;;;;;;;;;;;;;;;5035033;28;20072;-67
2023/04/05 01:55:14;;;;;;;;;;;;;;;;;;5034487;28;19956;-66
2023/04/05 01:57:40;;;;;;;;;;;;;;;;;;5034361;28;20471;-66
2023/04/05 02:00:06;;;;;;;;;;;;;;;;;;5034402;28;19959;-67
2023/04/05 02:02:32;;;;;;;;;;;;;;;;;;5034634;28;19960;-67
2023/04/05 02:04:58;;;;;;;;;;;;;;;;;;5034577;28;19957;-66
2023/04/05 02:07:25;;;;;;;;;;;;;;;;;;5034240;28;19963;-67
2023/04/05 02:09:51;;;;;;;;;;;;;;;;;;5034225;28;19978;-67
2023/04/05 02:12:17;;;;;;;;;;;;;;;;;;5034134;28;19975;-67
2023/04/05 02:14:43;;;;;;;;;;;;;;;;;;5034418;28;20323;-66
2023/04/05 02:17:09;;;;;;;;;;;;;;;;;;5034152;28;20413;-67
2023/04/05 02:19:45;;;;;;;;;;;;;;;;;;5034060;28;19955;-66
2023/04/05 02:22:11;;;;;;;;;;;;;;;;;;5033674;28;20026;-66
2023/04/05 02:24:36;;;;;;;;;;;;;;;;;;5034236;28;20048;-67
2023/04/05 02:27:02;;;;;;;;;;;;;;;;;;5034533;28;20340;-66
2023/04/05 02:29:28;;;;;;;;;;;;;;;;;;5033878;28;20389;-67
2023/04/05 02:31:54;;;;;;;;;;;;;;;;;;5034094;28;19974;-66
2023/04/05 02:34:21;;;;;;;;;;;;;;;;;;5033851;28;20035;-66
2023/04/05 02:36:48;;;;;;;;;;;;;;;;;;5034094;28;19956;-67
2023/04/05 02:39:14;;;;;;;;;;;;;;;;;;5033812;28;19963;-66
2023/04/05 02:41:40;;;;;;;;;;;;;;;;;;5034043;28;20043;-67
2023/04/05 02:44:05;;;;;;;;;;;;;;;;;;5034591;28;19957;-67
2023/04/05 02:46:31;;;;;;;;;;;;;;;;;;5033727;28;19956;-67
2023/04/05 02:48:57;;;;;;;;;;;;;;;;;;5033668;28;19954;-67
2023/04/05 02:51:23;;;;;;;;;;;;;;;;;;5033636;28;20028;-67
2023/04/05 02:53:49;;;;;;;;;;;;;;;;;;5033644;28;19964;-67
2023/04/05 02:56:15;;;;;;;;;;;;;;;;;;5037222;28;19995;-67
2023/04/05 02:58:41;;;;;;;;;;;;;;;;;;5040193;28;19959;-67
2023/04/05 03:01:07;;;;;;;;;;;;;;;;;;5040179;28;19978;-67
2023/04/05 03:03:33;;;;;;;;;;;;;;;;;;5040741;28;20393;-67
2023/04/05 03:06:00;;;;;;;;;;;;;;;;;;5040155;28;20039;-67
2023/04/05 03:08:27;;;;;;;;;;;;;;;;;;5040087;28;19960;-67
2023/04/05 03:10:53;;;;;;;;;;;;;;;;;;5040137;28;20351;-66
2023/04/05 03:13:19;;;;;;;;;;;;;;;;;;5040616;28;19976;-67
2023/04/05 03:15:45;;;;;;;;;;;;;;;;;;5040069;28;19956;-66
2023/04/05 03:18:11;;;;;;;;;;;;;;;;;;5040617;28;19956;-66
2023/04/05 03:20:40;;;;;;;;;;;;;;;;;;5040137;28;19991;-66
2023/04/05 03:23:06;;;;;;;;;;;;;;;;;;5040024;28;19977;-66
2023/04/05 03:25:32;;;;;;;;;;;;;;;;;;5040505;28;19957;-67
2023/04/05 03:27:58;;;;;;;;;;;;;;;;;;5039939;28;20006;-66
2023/04/05 03:30:24;;;;;;;;;;;;;;;;;;5040036;28;20436;-67
2023/04/05 03:32:50;;;;;;;;;;;;;;;;;;5039880;28;19975;-66
2023/04/05 03:35:18;;;;;;;;;;;;;;;;;;5040193;28;19967;-67
2023/04/05 03:37:44;;;;;;;;;;;;;;;;;;5040216;28;19955;-66
2023/04/05 03:40:10;;;;;;;;;;;;;;;;;;5040416;28;20459;-67
2023/04/05 03:42:36;;;;;;;;;;;;;;;;;;5039777;28;19960;-67
2023/04/05 03:45:02;;;;;;;;;;;;;;;;;;5039817;28;20477;-67
2023/04/05 03:47:28;;;;;;;;;;;;;;;;;;5039759;28;19955;-66
2023/04/05 03:49:53;;;;;;;;;;;;;;;;;;5039757;28;19994;-68
2023/04/05 03:52:19;;;;;;;;;;;;;;;;;;5040262;28;20336;-67
2023/04/05 03:54:45;;;;;;;;;;;;;;;;;;5039992;28;19959;-66
2023/04/05 03:57:11;;;;;;;;;;;;;;;;;;5039702;28;20042;-66
2023/04/05 03:59:37;;;;;;;;;;;;;;;;;;5039952;28;19960;-66
2023/04/05 04:02:03;;;;;;;;;;;;;;;;;;5039640;28;19956;-67
2023/04/05 04:04:29;;;;;;;;;;;;;;;;;;5039874;28;19959;-67
2023/04/05 04:06:55;;;;;;;;;;;;;;;;;;5039059;28;19966;-68
2023/04/05 04:09:21;;;;;;;;;;;;;;;;;;5035909;28;19955;-67
2023/04/05 04:11:47;;;;;;;;;;;;;;;;;;5036428;28;19976;-66
2023/04/05 04:14:13;;;;;;;;;;;;;;;;;;5036734;28;20002;-67
2023/04/05 04:16:39;;;;;;;;;;;;;;;;;;5036352;28;20323;-67
2023/04/05 04:19:05;;;;;;;;;;;;;;;;;;5036339;28;19956;-67
2023/04/05 04:21:32;;;;;;;;;;;;;;;;;;5036076;28;19999;-66
2023/04/05 04:23:59;;;;;;;;;;;;;;;;;;5036557;28;19963;-67
2023/04/05 04:26:28;;;;;;;;;;;;;;;;;;5036184;28;19992;-67
2023/04/05 04:28:54;;;;;;;;;;;;;;;;;;5036624;28;19980;-67
2023/04/05 04:31:21;;;;;;;;;;;;;;;;;;5035998;28;20490;-67
2023/04/05 04:33:47;;;;;;;;;;;;;;;;;;5036052;28;20006;-66
2023/04/05 04:36:13;;;;;;;;;;;;;;;;;;5035995;28;19960;-67
2023/04/05 04:38:41;;;;;;;;;;;;;;;;;;5036229;28;19955;-67
2023/04/05 04:41:07;;;;;;;;;;;;;;;;;;5034577;28;20002;-68
2023/04/05 04:43:41;;;;;;;;;;;;;;;;;;5035916;28;20452;-68
2023/04/05 04:46:10;;;;;;;;;;;;;;;;;;5035861;28;20045;-67
2023/04/05 04:48:36;;;;;;;;;;;;;;;;;;5036375;28;19959;-67
2023/04/05 04:51:03;;;;;;;;;;;;;;;;;;5036001;28;19956;-67
2023/04/05 04:53:29;;;;;;;;;;;;;;;;;;5035631;28;20432;-67
2023/04/05 04:55:56;;;;;;;;;;;;;;;;;;5035603;28;19956;-67
2023/04/05 04:58:22;;;;;;;;;;;;;;;;;;5035842;28;19956;-68
2023/04/05 05:00:47;;;;;;;;;;;;;;;;;;5035541;28;19962;-67
2023/04/05 05:03:13;;;;;;;;;;;;;;;;;;5035543;28;19957;-67
2023/04/05 05:05:40;;;;;;;;;;;;;;;;;;5035755;28;20005;-67
2023/04/05 05:08:06;;;;;;;;;;;;;;;;;;5035454;28;19967;-67
2023/04/05 05:10:32;;;;;;;;;;;;;;;;;;5035419;28;19957;-67
2023/04/05 05:12:58;;;;;;;;;;;;;;;;;;5035823;28;20305;-66
2023/04/05 05:15:26;;;;;;;;;;;;;;;;;;5035575;28;20003;-67
2023/04/05 05:17:53;;;;;;;;;;;;;;;;;;5035847;28;20421;-66
2023/04/05 05:20:19;;;;;;;;;;;;;;;;;;5033708;28;19961;-67
2023/04/05 05:22:45;;;;;;;;;;;;;;;;;;5035133;28;19960;-66
2023/04/05 05:25:11;;;;;;;;;;;;;;;;;;5035111;28;19956;-68
2023/04/05 05:27:37;;;;;;;;;;;;;;;;;;5035061;28;19956;-66
2023/04/05 05:30:03;;;;;;;;;;;;;;;;;;5035041;28;19978;-67
2023/04/05 05:32:29;;;;;;;;;;;;;;;;;;5034856;28;20498;-66
2023/04/05 05:34:55;;;;;;;;;;;;;;;;;;5034900;28;19963;-67
2023/04/05 05:37:21;;;;;;;;;;;;;;;;;;5034808;28;20507;-67
2023/04/05 05:39:47;;;;;;;;;;;;;;;;;;5035113;28;19971;-66
2023/04/05 05:42:13;;;;;;;;;;;;;;;;;;5034722;28;19962;-67
2023/04/05 05:44:39;;;;;;;;;;;;;;;;;;5035245;28;19994;-68
2023/04/05 05:47:05;;;;;;;;;;;;;;;;;;5034940;28;19994;-66
2023/04/05 05:49:31;;;;;;;;;;;;;;;;;;5034594;28;20001;-67
2023/04/05 05:51:57;;;;;;;;;;;;;;;;;;5034770;28;19979;-68
2023/04/05 05:54:23;;;;;;;;;;;;;;;;;;5034534;28;19956;-67
2023/04/05 05:56:49;;;;;;;;;;;;;;;;;;5034755;28;19955;-67
2023/04/05 05:59:15;;;;;;;;;;;;;;;;;;5034993;28;20413;-67
2023/04/05 06:01:41;;;;;;;;;;;;;;;;;;5034706;28;19960;-67
2023/04/05 06:04:07;;;;;;;;;;;;;;;;;;5034931;28;20545;-67
2023/04/05 06:06:34;;;;;;;;;;;;;;;;;;5034280;28;19967;-67
2023/04/05 06:08:59;;;;;;;;;;;;;;;;;;5034255;28;19963;-67
2023/04/05 06:11:25;;;;;;;;;;;;;;;;;;5034152;28;19956;-66
2023/04/05 06:13:53;;;;;;;;;;;;;;;;;;5034456;28;19957;-68
2023/04/05 06:16:19;;;;;;;;;;;;;;;;;;5034071;28;20437;-67
2023/04/05 06:18:45;;;;;;;;;;;;;;;;;;5034144;28;19963;-66
2023/04/05 06:21:11;;;;;;;;;;;;;;;;;;5034188;28;19992;-67
2023/04/05 06:23:37;;;;;;;;;;;;;;;;;;5034307;28;19955;-68
2023/04/05 06:26:03;;;;;;;;;;;;;;;;;;5034231;28;20321;-68
2023/04/05 06:28:29;;;;;;;;;;;;;;;;;;5034277;28;20005;-68
2023/04/05 06:30:55;;;;;;;;;;;;;;;;;;5033358;28;19972;-67
2023/04/05 06:33:21;;;;;;;;;;;;;;;;;;5033781;28;19999;-66
2023/04/05 06:35:47;;;;;;;;;;;;;;;;;;5033500;28;20057;-72
2023/04/05 06:38:12;;;;;;;;;;;;;;;;;;5033834;28;19955;-71
2023/04/05 06:40:38;;;;;;;;;;;;;;;;;;5033859;28;19957;-72
2023/04/05 06:43:05;;;;;;;;;;;;;;;;;;5034092;28;19956;-71
2023/04/05 06:45:31;;;;;;;;;;;;;;;;;;5033773;28;19997;-71
2023/04/05 06:47:57;;;;;;;;;;;;;;;;;;5034803;28;19964;-73
2023/04/05 06:50:23;;;;;;;;;;;;;;;;;;5033863;28;19996;-73
2023/04/05 06:52:48;;;;;;;;;;;;;;;;;;5033656;28;19974;-72
2023/04/05 06:55:15;;;;;;;;;;;;;;;;;;5033938;28;19955;-73
2023/04/05 06:57:40;;;;;;;;;;;;;;;;;;5033633;28;19963;-72
2023/04/05 07:00:10;;;;;;;;;;;;;;;;;;5033610;28;19965;-69
2023/04/05 07:02:36;;;;;;;;;;;;;;;;;;5033910;28;19960;-71
2023/04/05 07:05:04;;;;;;;;;;;;;;;;;;5033599;28;19964;-71
2023/04/05 07:07:30;;;;;;;;;;;;;;;;;;5034089;28;19964;-71
2023/04/05 07:09:56;;;;;;;;;;;;;;;;;;5033792;28;19967;-70
2023/04/05 07:12:22;;;;;;;;;;;;;;;;;;5033416;28;19976;-72
2023/04/05 07:14:48;;;;;;;;;;;;;;;;;;5033430;28;19959;-71
2023/04/05 07:17:14;;;;;;;;;;;;;;;;;;5033794;28;20007;-71
2023/04/05 07:19:40;;;;;;;;;;;;;;;;;;5033391;28;19957;-71
2023/04/05 07:22:06;;;;;;;;;;;;;;;;;;5033147;28;20022;-70
2023/04/05 07:24:32;;;;;;;;;;;;;;;;;;5033283;28;19963;-70
2023/04/05 07:26:58;;;;;;;;;;;;;;;;;;5033837;28;20426;-69
2023/04/05 07:29:23;;;;;;;;;;;;;;;;;;5033211;28;19971;-69
2023/04/05 07:31:49;;;;;;;;;;;;;;;;;;5033250;28;19998;-68
2023/04/05 07:34:15;;;;;;;;;;;;;;;;;;5033258;28;19957;-69
2023/04/05 07:36:41;;;;;;;;;;;;;;;;;;5033748;28;19961;-69
2023/04/05 07:39:07;;;;;;;;;;;;;;;;;;5033273;28;19955;-69
2023/04/05 07:41:34;;;;;;;;;;;;;;;;;;5033476;28;19961;-70
2023/04/05 07:44:00;;;;;;;;;;;;;;;;;;5036059;28;20389;-69
2023/04/05 07:46:26;;;;;;;;;;;;;;;;;;5036906;28;19999;-68
2023/04/05 07:48:52;;;;;;;;;;;;;;;;;;5037203;28;19955;-70
2023/04/05 07:51:17;;;;;;;;;;;;;;;;;;5036765;28;20411;-69
2023/04/05 07:53:43;;;;;;;;;;;;;;;;;;5036803;28;20009;-68
2023/04/05 07:56:09;;;;;;;;;;;;;;;;;;5037261;28;20423;-69
2023/04/05 07:58:39;;;;;;;;;;;;;;;;;;5036931;28;20481;-69
2023/04/05 08:01:05;;;;;;;;;;;;;;;;;;5036668;28;19955;-68
2023/04/05 08:03:33;;;;;;;;;;;;;;;;;;5036611;28;19955;-68
2023/04/05 08:05:59;;;;;;;;;;;;;;;;;;5036549;28;20365;-68
2023/04/05 08:08:25;;;;;;;;;;;;;;;;;;5037036;28;20065;-69
2023/04/05 08:10:51;;;;;;;;;;;;;;;;;;5036334;28;19982;-68
2023/04/05 08:13:17;;;;;;;;;;;;;;;;;;5036386;28;20068;-70
2023/04/05 08:15:43;;;;;;;;;;;;;;;;;;5036405;28;20386;-68
2023/04/05 08:18:09;;;;;;;;;;;;;;;;;;5036890;28;20399;-68
2023/04/05 08:20:37;;;;;;;;;;;;;;;;;;5036331;28;20042;-67
2023/04/05 08:23:03;;;;;;;;;;;;;;;;;;5036895;28;19954;-67
2023/04/05 08:25:29;;;;;;;;;;;;;;;;;;5042351;28;20324;-71
2023/04/05 08:27:55;;;;;;;;;;;;;;;;;;5056022;28;19962;-72
2023/04/05 08:30:22;;;;;;;;;;;;;;;;;;5056003;28;19970;-68
2023/04/05 08:32:48;;;;;;;;;;;;;;;;;;5056250;28;19974;-68
2023/04/05 08:35:13;;;;;;;;;;;;;;;;;;5055909;28;19995;-68
2023/04/05 08:37:39;;;;;;;;;;;;;;;;;;5056483;28;20327;-69
2023/04/05 08:40:07;;;;;;;;;;;;;;;;;;5055831;28;20426;-69
2023/04/05 08:42:33;;;;;;;;;;;;;;;;;;5056362;28;19962;-70
2023/04/05 08:44:59;;;;;;;;;;;;;;;;;;5055790;28;19954;-70
2023/04/05 08:47:25;;;;;;;;;;;;;;;;;;5055840;28;20330;-69
2023/04/05 08:49:50;;;;;;;;;;;;;;;;;;5055690;28;19960;-69
2023/04/05 08:52:16;;;;;;;;;;;;;;;;;;5055893;28;19982;-69
2023/04/05 08:54:42;;;;;;;;;;;;;;;;;;5055353;28;20009;-69
2023/04/05 08:57:08;;;;;;;;;;;;;;;;;;5055516;28;19998;-69
2023/04/05 08:59:34;;;;;;;;;;;;;;;;;;5055617;28;19955;-72
2023/04/05 09:02:00;;;;;;;;;;;;;;;;;;5055393;28;19955;-68
2023/04/05 09:04:27;;;;;;;;;;;;;;;;;;5055672;28;20343;-69
2023/04/05 09:06:53;;;;;;;;;;;;;;;;;;5055896;28;19965;-69
2023/04/05 09:09:18;;;;;;;;;;;;;;;;;;5055340;28;19956;-69
2023/04/05 09:11:44;;;;;;;;;;;;;;;;;;5055826;28;20420;-70
2023/04/05 09:14:10;;;;;;;;;;;;;;;;;;5055234;28;19961;-69
2023/04/05 09:16:36;;;;;;;;;;;;;;;;;;5055234;28;19977;-72
2023/04/05 09:19:02;;;;;;;;;;;;;;;;;;5055089;28;19954;-69
2023/04/05 09:21:29;;;;;;;;;;;;;;;;;;5054286;28;20370;-69
2023/04/05 09:23:55;;;;;;;;;;;;;;;;;;5054572;28;19956;-68
2023/04/05 09:26:21;;;;;;;;;;;;;;;;;;5054543;28;20059;-68
2023/04/05 09:28:47;;;;;;;;;;;;;;;;;;5054522;28;20006;-69
2023/04/05 09:31:13;;;;;;;;;;;;;;;;;;5054393;28;19960;-68
2023/04/05 09:33:39;;;;;;;;;;;;;;;;;;5054619;28;19983;-68
2023/04/05 09:36:05;;;;;;;;;;;;;;;;;;5055398;28;19981;-69
2023/04/05 09:38:31;;;;;;;;;;;;;;;;;;5054794;28;19981;-70
2023/04/05 09:40:56;;;;;;;;;;;;;;;;;;5055038;28;19995;-69
2023/04/05 09:43:22;;;;;;;;;;;;;;;;;;5054664;28;19955;-69
2023/04/05 09:45:48;;;;;;;;;;;;;;;;;;5054919;28;19961;-69
2023/04/05 09:48:14;;;;;;;;;;;;;;;;;;5054568;28;20067;-69
2023/04/05 09:50:40;;;;;;;;;;;;;;;;;;5054564;28;20099;-68
2023/04/05 09:53:06;;;;;;;;;;;;;;;;;;5054688;28;19975;-69
2023/04/05 09:55:32;;;;;;;;;;;;;;;;;;5054767;28;19956;-69
2023/04/05 09:57:58;;;;;;;;;;;;;;;;;;5054987;28;19961;-69
2023/04/05 10:00:25;;;;;;;;;;;;;;;;;;5054355;28;20308;-69
2023/04/05 10:02:50;;;;;;;;;;;;;;;;;;5054347;28;19963;-69
2023/04/05 10:05:16;;;;;;;;;;;;;;;;;;5053830;28;19959;-69
2023/04/05 10:07:42;;;;;;;;;;;;;;;;;;5054412;28;20411;-70
2023/04/05 10:10:08;;;;;;;;;;;;;;;;;;5054193;28;19958;-69
2023/04/05 10:12:34;;;;;;;;;;;;;;;;;;5054367;28;19979;-70
2023/04/05 10:15:00;;;;;;;;;;;;;;;;;;5054123;28;20492;-69
2023/04/05 10:17:26;;;;;;;;;;;;;;;;;;5054346;28;19955;-67
2023/04/05 10:19:52;;;;;;;;;;;;;;;;;;5054270;28;20087;-68
2023/04/05 10:22:18;;;;;;;;;;;;;;;;;;5053646;28;20487;-68
2023/04/05 10:24:46;;;;;;;;;;;;;;;;;;5053523;28;20151;-69
2023/04/05 10:27:12;;;;;;;;;;;;;;;;;;5054203;28;19963;-69
2023/04/05 10:29:38;;;;;;;;;;;;;;;;;;5054897;28;20357;-69
2023/04/05 10:32:04;;;;;;;;;;;;;;;;;;5053766;28;19974;-69
2023/04/05 10:34:31;;;;;;;;;;;;;;;;;;5054408;28;19956;-69
2023/04/05 10:36:57;;;;;;;;;;;;;;;;;;5054132;28;19963;-69
2023/04/05 10:39:23;;;;;;;;;;;;;;;;;;5053801;28;20361;-68
2023/04/05 10:41:49;;;;;;;;;;;;;;;;;;5053755;28;20005;-69
2023/04/05 10:44:15;;;;;;;;;;;;;;;;;;5053953;28;19955;-69
2023/04/05 10:46:41;;;;;;;;;;;;;;;;;;5053643;28;19959;-68
2023/04/05 10:49:07;;;;;;;;;;;;;;;;;;5053642;28;19959;-68
2023/04/05 10:51:32;;;;;;;;;;;;;;;;;;5054077;28;19955;-69
2023/04/05 10:53:58;;;;;;;;;;;;;;;;;;5053862;28;19954;-68
2023/04/05 10:56:24;;;;;;;;;;;;;;;;;;5053533;28;19956;-69
2023/04/05 10:58:50;;;;;;;;;;;;;;;;;;5053534;28;19961;-69
2023/04/05 11:01:17;;;;;;;;;;;;;;;;;;5053512;28;19959;-69
2023/04/05 11:03:42;;;;;;;;;;;;;;;;;;5053486;28;20419;-69
2023/04/05 11:06:08;;;;;;;;;;;;;;;;;;5054040;28;19953;-69
2023/04/05 11:08:34;;;;;;;;;;;;;;;;;;5053763;28;20005;-69
2023/04/05 11:11:00;;;;;;;;;;;;;;;;;;5053457;28;20443;-68
2023/04/05 11:13:26;;;;;;;;;;;;;;;;;;5053335;28;19979;-69
2023/04/05 11:15:52;;;;;;;;;;;;;;;;;;5053223;28;19955;-68
2023/04/05 11:18:18;;;;;;;;;;;;;;;;;;5056712;28;19955;-68
2023/04/05 11:20:44;;;;;;;;;;;;;;;;;;5057216;28;20038;-69
2023/04/05 11:23:10;;;;;;;;;;;;;;;;;;5057922;28;20042;-68
2023/04/05 11:25:36;;;;;;;;;;;;;;;;;;5057327;28;19963;-70
2023/04/05 11:28:04;;;;;;;;;;;;;;;;;;5057521;28;20061;-69
2023/04/05 11:30:30;;;;;;;;;;;;;;;;;;5057651;28;19978;-69
2023/04/05 11:32:55;;;;;;;;;;;;;;;;;;5057117;28;20069;-69
2023/04/05 11:35:22;;;;;;;;;;;;;;;;;;5057142;28;19954;-70
2023/04/05 11:37:48;;;;;;;;;;;;;;;;;;5057108;28;19956;-68
2023/04/05 11:40:13;;;;;;;;;;;;;;;;;;5057055;28;20361;-69
2023/04/05 11:42:40;;;;;;;;;;;;;;;;;;5056974;28;19962;-70
2023/04/05 11:45:05;;;;;;;;;;;;;;;;;;5057215;28;19956;-68
2023/04/05 11:47:31;;;;;;;;;;;;;;;;;;5056896;28;19978;-69
2023/04/05 11:49:57;;;;;;;;;;;;;;;;;;5057144;28;19961;-68
2023/04/05 11:52:23;;;;;;;;;;;;;;;;;;5056721;28;19979;-69
2023/04/05 11:54:49;;;;;;;;;;;;;;;;;;5056770;28;19958;-68
2023/04/05 11:57:15;;;;;;;;;;;;;;;;;;5057022;28;19955;-69
2023/04/05 11:59:41;;;;;;;;;;;;;;;;;;5056690;28;20483;-70
2023/04/05 12:02:08;;;;;;;;;;;;;;;;;;5056656;28;20329;-69
2023/04/05 12:04:33;;;;;;;;;;;;;;;;;;5056601;28;20368;-67
2023/04/05 12:07:00;;;;;;;;;;;;;;;;;;5057067;28;19956;-70
2023/04/05 12:09:26;;;;;;;;;;;;;;;;;;5056483;28;19956;-70
2023/04/05 12:11:53;;;;;;;;;;;;;;;;;;5056385;28;19975;-70
2023/04/05 12:14:19;;;;;;;;;;;;;;;;;;5056631;28;19960;-69
2023/04/05 12:16:45;;;;;;;;;;;;;;;;;;5056362;28;19956;-71
2023/04/05 12:19:11;;;;;;;;;;;;;;;;;;5056310;28;20015;-70
2023/04/05 12:21:37;;;;;;;;;;;;;;;;;;5056071;28;20089;-70
2023/04/05 12:24:03;;;;;;;;;;;;;;;;;;5056443;28;19956;-70
2023/04/05 12:26:33;;;;;;;;;;;;;;;;;;5056445;28;19954;-68
2023/04/05 12:29:00;;;;;;;;;;;;;;;;;;5055135;28;19972;-70
2023/04/05 12:31:26;;;;;;;;;;;;;;;;;;5056042;28;19962;-68
2023/04/05 12:33:52;;;;;;;;;;;;;;;;;;5056084;28;20365;-70
2023/04/05 12:36:18;;;;;;;;;;;;;;;;;;5056002;28;19956;-70
2023/04/05 12:38:44;;;;;;;;;;;;;;;;;;5056251;28;19977;-69
2023/04/05 12:41:09;;;;;;;;;;;;;;;;;;5055943;28;20000;-69
2023/04/05 12:43:35;;;;;;;;;;;;;;;;;;5055823;28;19955;-70
2023/04/05 12:46:01;;;;;;;;;;;;;;;;;;5056105;28;19955;-68
2023/04/05 12:48:27;;;;;;;;;;;;;;;;;;5055764;28;20046;-70
2023/04/05 12:50:53;;;;;;;;;;;;;;;;;;5055721;28;19966;-69
2023/04/05 12:53:19;;;;;;;;;;;;;;;;;;5056181;28;19976;-69
2023/04/05 12:55:45;;;;;;;;;;;;;;;;;;5055942;28;19967;-69
2023/04/05 12:58:13;;;;;;;;;;;;;;;;;;5055877;28;20403;-68
2023/04/05 13:00:39;;;;;;;;;;;;;;;;;;5056397;28;19956;-69
2023/04/05 13:03:05;;;;;;;;;;;;;;;;;;5055760;28;20049;-69
2023/04/05 13:05:32;;;;;;;;;;;;;;;;;;5055661;28;19957;-68
2023/04/05 13:07:58;;;;;;;;;;;;;;;;;;5056072;28;20365;-68
2023/04/05 13:10:24;;;;;;;;;;;;;;;;;;5055351;28;19955;-69
2023/04/05 13:12:50;;;;;;;;;;;;;;;;;;5055808;28;20473;-69
2023/04/05 13:15:16;;;;;;;;;;;;;;;;;;5055242;28;19956;-70
2023/04/05 13:17:42;;;;;;;;;;;;;;;;;;5055535;28;19960;-69
2023/04/05 13:20:07;;;;;;;;;;;;;;;;;;5055489;28;20408;-67
2023/04/05 13:22:33;;;;;;;;;;;;;;;;;;5054736;28;19990;-70
2023/04/05 13:25:00;;;;;;;;;;;;;;;;;;5055335;28;20042;-69
2023/04/05 13:27:25;;;;;;;;;;;;;;;;;;5055314;28;20303;-70
2023/04/05 13:29:51;;;;;;;;;;;;;;;;;;5055623;28;19978;-70
2023/04/05 13:32:17;;;;;;;;;;;;;;;;;;5054846;28;20410;-69
2023/04/05 13:34:44;;;;;;;;;;;;;;;;;;5055164;28;19970;-69
2023/04/05 13:37:10;;;;;;;;;;;;;;;;;;5054936;28;19956;-69
2023/04/05 13:39:36;;;;;;;;;;;;;;;;;;5055296;28;19963;-68
2023/04/05 13:42:02;;;;;;;;;;;;;;;;;;5054745;28;19954;-68
2023/04/05 13:44:28;;;;;;;;;;;;;;;;;;5054704;28;19956;-69
2023/04/05 13:46:54;;;;;;;;;;;;;;;;;;5054866;28;19966;-68
2023/04/05 13:49:20;;;;;;;;;;;;;;;;;;5055167;28;20415;-69
2023/04/05 13:51:46;;;;;;;;;;;;;;;;;;5054480;28;20020;-68
2023/04/05 13:54:12;;;;;;;;;;;;;;;;;;5054773;28;20046;-69
2023/04/05 13:56:38;;;;;;;;;;;;;;;;;;5054448;28;19955;-69
2023/04/05 13:59:04;;;;;;;;;;;;;;;;;;5054421;28;19955;-67
2023/04/05 14:01:29;;;;;;;;;;;;;;;;;;5054948;28;19954;-68
2023/04/05 14:03:55;;;;;;;;;;;;;;;;;;5054334;28;19960;-68
2023/04/05 14:06:21;;;;;;;;;;;;;;;;;;5054258;28;20045;-68
2023/04/05 14:08:53;;;;;;;;;;;;;;;;;;5054579;28;19958;-68
2023/04/05 14:11:19;;;;;;;;;;;;;;;;;;5054230;28;20005;-69
2023/04/05 14:13:45;;;;;;;;;;;;;;;;;;5054136;28;19978;-70
2023/04/05 14:16:11;;;;;;;;;;;;;;;;;;5054679;28;20404;-70
2023/04/05 14:18:37;;;;;;;;;;;;;;;;;;5054356;28;19967;-70
2023/04/05 14:21:03;;;;;;;;;;;;;;;;;;5053852;28;19992;-68
2023/04/05 14:23:29;;;;;;;;;;;;;;;;;;5054015;28;19956;-70
2023/04/05 14:25:55;;;;;;;;;;;;;;;;;;5053969;28;19962;-69
2023/04/05 14:28:20;;;;;;;;;;;;;;;;;;5054213;28;19956;-69
2023/04/05 14:30:46;;;;;;;;;;;;;;;;;;5053855;28;20076;-68
2023/04/05 14:33:13;;;;;;;;;;;;;;;;;;5054021;28;19974;-68
2023/04/05 14:35:39;;;;;;;;;;;;;;;;;;5053813;28;19963;-68
2023/04/05 14:38:05;;;;;;;;;;;;;;;;;;5053830;28;19954;-68
2023/04/05 14:40:31;;;;;;;;;;;;;;;;;;5053764;28;20308;-69
2023/04/05 14:42:57;;;;;;;;;;;;;;;;;;5053774;28;19959;-69
2023/04/05 14:45:27;;;;;;;;;;;;;;;;;;5053714;28;20005;-67
2023/04/05 14:47:53;;;;;;;;;;;;;;;;;;5054268;28;19955;-69
2023/04/05 14:50:19;;;;;;;;;;;;;;;;;;5053627;28;20404;-70
2023/04/05 14:52:44;;;;;;;;;;;;;;;;;;5053096;28;19982;-69
2023/04/05 14:55:13;;;;;;;;;;;;;;;;;;5053862;28;19958;-69
2023/04/05 14:57:40;;;;;;;;;;;;;;;;;;5054119;28;20004;-68
2023/04/05 15:00:06;;;;;;;;;;;;;;;;;;5053526;28;19956;-70
2023/04/05 15:02:32;;;;;;;;;;;;;;;;;;5053820;28;20050;-70
2023/04/05 15:04:59;;;;;;;;;;;;;;;;;;5053510;28;19953;-68
2023/04/05 15:07:25;;;;;;;;;;;;;;;;;;5054039;28;19970;-68
2023/04/05 15:09:51;;;;;;;;;;;;;;;;;;5053434;28;19955;-70
2023/04/05 15:12:17;;;;;;;;;;;;;;;;;;5053523;28;19989;-68
2023/04/05 15:14:44;;;;;;;;;;;;;;;;;;5053410;28;19955;-69
2023/04/05 15:17:10;;;;;;;;;;;;;;;;;;5051962;28;19958;-68
2023/04/05 15:19:36;;;;;;;;;;;;;;;;;;5053663;28;19953;-68
2023/04/05 15:22:02;;;;;;;;;;;;;;;;;;5053148;28;20513;-69
2023/04/05 15:24:28;;;;;;;;;;;;;;;;;;5053336;28;19960;-68
2023/04/05 15:27:00;;;;;;;;;;;;;;;;;;5053202;28;19960;-68
2023/04/05 15:29:26;;;;;;;;;;;;;;;;;;5053280;28;19976;-69
2023/04/05 15:31:52;;;;;;;;;;;;;;;;;;5052913;28;19975;-70
2023/04/05 15:34:18;;;;;;;;;;;;;;;;;;5053390;28;20028;-69
2023/04/05 15:36:44;;;;;;;;;;;;;;;;;;5053191;28;19955;-70
2023/04/05 15:39:10;;;;;;;;;;;;;;;;;;5049616;28;19964;-71
2023/04/05 15:41:36;;;;;;;;;;;;;;;;;;5033922;28;19963;-70
2023/04/05 15:44:02;;;;;;;;;;;;;;;;;;5039771;28;20018;-70
2023/04/05 15:46:28;;;;;;;;;;;;;;;;;;5053888;28;20348;-69
2023/04/05 15:48:54;;;;;;;;;;;;;;;;;;5039278;28;19959;-70
2023/04/05 15:51:20;;;;;;;;;;;;;;;;;;5033104;28;20001;-70
2023/04/05 15:53:46;;;;;;;;;;;;;;;;;;5034676;28;19980;-69
2023/04/05 15:56:12;;;;;;;;;;;;;;;;;;5033086;28;20321;-70
2023/04/05 15:58:38;;;;;;;;;;;;;;;;;;5033059;28;19953;-71
2023/04/05 16:01:04;;;;;;;;;;;;;;;;;;5033201;28;19962;-69
2023/04/05 16:03:30;;;;;;;;;;;;;;;;;;5036858;28;20049;-73
2023/04/05 16:05:56;;;;;;;;;;;;;;;;;;5057324;28;20303;-71
2023/04/05 16:08:22;;;;;;;;;;;;;;;;;;5056524;28;19955;-71
2023/04/05 16:10:48;;;;;;;;;;;;;;;;;;5050896;28;19959;-70
2023/04/05 16:13:14;;;;;;;;;;;;;;;;;;5036670;28;19974;-69
2023/04/05 16:15:40;;;;;;;;;;;;;;;;;;5035889;28;19954;-71
2023/04/05 16:18:07;;;;;;;;;;;;;;;;;;5045822;28;20388;-71
2023/04/05 16:20:33;;;;;;;;;;;;;;;;;;5036951;28;19964;-69
2023/04/05 16:23:00;;;;;;;;;;;;;;;;;;5036622;28;20467;-69
2023/04/05 16:25:25;;;;;;;;;;;;;;;;;;5036493;28;19961;-69
2023/04/05 16:27:51;;;;;;;;;;;;;;;;;;5036432;28;19955;-70
2023/04/05 16:30:17;;;;;;;;;;;;;;;;;;5036303;28;19975;-69
2023/04/05 16:32:43;;;;;;;;;;;;;;;;;;5035914;28;19975;-70
2023/04/05 16:35:09;;;;;;;;;;;;;;;;;;5035956;28;19963;-71
2023/04/05 16:37:35;;;;;;;;;;;;;;;;;;5035524;28;20017;-71